sensor_id;sensor_type;location;lat;lon;timestamp;P1;durP1;ratioP1;P2;durP2;ratioP2
49488;SDS011;35382;51.484;11.476;2023-08-06T00:00:27;3.03;;;1.70;;
49488;SDS011;35382;51.484;11.476;2023-08-06T00:02:52;4.90;;;2.00;;
49488;SDS011;35382;51.484;11.476;2023-08-06T00:05:18;2.60;;;1.70;;
49488;SDS011;35382;51.484;11.476;2023-08-06T00:07:47;3.45;;;1.80;;
49488;SDS011;35382;51.484;11.476;2023-08-06T00:10:13;3.60;;;1.38;;
49488;SDS011;35382;51.484;11.476;2023-08-06T00:12:38;3.15;;;1.80;;
49488;SDS011;35382;51.484;11.476;2023-08-06T00:15:04;3.90;;;1.98;;
49488;SDS011;35382;51.484;11.476;2023-08-06T00:17:30;4.05;;;1.88;;
49488;SDS011;35382;51.484;11.476;2023-08-06T00:19:55;5.63;;;2.10;;
49488;SDS011;35382;51.484;11.476;2023-08-06T00:22:20;6.13;;;2.20;;
49488;SDS011;35382;51.484;11.476;2023-08-06T00:24:46;4.45;;;2.22;;
49488;SDS011;35382;51.484;11.476;2023-08-06T00:27:11;5.07;;;2.45;;
49488;SDS011;35382;51.484;11.476;2023-08-06T00:29:37;5.07;;;2.30;;
49488;SDS011;35382;51.484;11.476;2023-08-06T00:32:02;4.68;;;2.40;;
49488;SDS011;35382;51.484;11.476;2023-08-06T00:34:28;4.32;;;2.50;;
49488;SDS011;35382;51.484;11.476;2023-08-06T00:36:53;5.97;;;2.72;;
49488;SDS011;35382;51.484;11.476;2023-08-06T00:39:19;7.20;;;2.65;;
49488;SDS011;35382;51.484;11.476;2023-08-06T00:41:44;6.20;;;2.58;;
49488;SDS011;35382;51.484;11.476;2023-08-06T00:44:10;5.07;;;2.10;;
49488;SDS011;35382;51.484;11.476;2023-08-06T00:46:36;5.07;;;2.47;;
49488;SDS011;35382;51.484;11.476;2023-08-06T00:49:01;5.40;;;2.58;;
49488;SDS011;35382;51.484;11.476;2023-08-06T00:51:27;7.03;;;2.58;;
49488;SDS011;35382;51.484;11.476;2023-08-06T00:53:52;6.15;;;2.60;;
49488;SDS011;35382;51.484;11.476;2023-08-06T00:56:18;5.13;;;2.53;;
49488;SDS011;35382;51.484;11.476;2023-08-06T00:58:44;6.70;;;2.70;;
49488;SDS011;35382;51.484;11.476;2023-08-06T01:03:36;5.93;;;2.47;;
49488;SDS011;35382;51.484;11.476;2023-08-06T01:06:02;8.18;;;2.55;;
49488;SDS011;35382;51.484;11.476;2023-08-06T01:11:17;5.90;;;2.30;;
49488;SDS011;35382;51.484;11.476;2023-08-06T01:13:50;6.10;;;2.70;;
49488;SDS011;35382;51.484;11.476;2023-08-06T01:16:22;3.97;;;2.40;;
49488;SDS011;35382;51.484;11.476;2023-08-06T01:18:49;6.82;;;2.78;;
49488;SDS011;35382;51.484;11.476;2023-08-06T01:21:18;5.03;;;2.50;;
49488;SDS011;35382;51.484;11.476;2023-08-06T01:23:44;7.50;;;3.00;;
49488;SDS011;35382;51.484;11.476;2023-08-06T01:28:56;9.55;;;3.08;;
49488;SDS011;35382;51.484;11.476;2023-08-06T01:31:31;7.68;;;3.97;;
49488;SDS011;35382;51.484;11.476;2023-08-06T01:33:58;5.15;;;3.30;;
49488;SDS011;35382;51.484;11.476;2023-08-06T01:36:24;5.53;;;3.20;;
49488;SDS011;35382;51.484;11.476;2023-08-06T01:38:52;5.85;;;2.85;;
49488;SDS011;35382;51.484;11.476;2023-08-06T01:41:18;4.20;;;2.78;;
49488;SDS011;35382;51.484;11.476;2023-08-06T01:43:43;5.10;;;2.70;;
49488;SDS011;35382;51.484;11.476;2023-08-06T01:46:09;6.28;;;2.88;;
49488;SDS011;35382;51.484;11.476;2023-08-06T01:48:34;4.38;;;2.70;;
49488;SDS011;35382;51.484;11.476;2023-08-06T01:51:00;6.80;;;3.50;;
49488;SDS011;35382;51.484;11.476;2023-08-06T01:53:25;5.15;;;3.03;;
49488;SDS011;35382;51.484;11.476;2023-08-06T01:55:51;5.15;;;2.60;;
49488;SDS011;35382;51.484;11.476;2023-08-06T01:58:16;4.80;;;2.88;;
49488;SDS011;35382;51.484;11.476;2023-08-06T02:00:42;5.05;;;2.92;;
49488;SDS011;35382;51.484;11.476;2023-08-06T02:03:07;5.70;;;2.63;;
49488;SDS011;35382;51.484;11.476;2023-08-06T02:05:33;6.35;;;3.00;;
49488;SDS011;35382;51.484;11.476;2023-08-06T02:07:58;6.07;;;3.13;;
49488;SDS011;35382;51.484;11.476;2023-08-06T02:10:24;6.18;;;3.38;;
49488;SDS011;35382;51.484;11.476;2023-08-06T02:12:49;6.60;;;3.97;;
49488;SDS011;35382;51.484;11.476;2023-08-06T02:15:15;6.40;;;3.63;;
49488;SDS011;35382;51.484;11.476;2023-08-06T02:17:40;8.48;;;4.25;;
49488;SDS011;35382;51.484;11.476;2023-08-06T02:20:06;7.70;;;4.47;;
49488;SDS011;35382;51.484;11.476;2023-08-06T02:22:32;6.07;;;3.88;;
49488;SDS011;35382;51.484;11.476;2023-08-06T02:24:57;6.32;;;3.80;;
49488;SDS011;35382;51.484;11.476;2023-08-06T02:27:22;6.13;;;4.07;;
49488;SDS011;35382;51.484;11.476;2023-08-06T02:29:48;7.15;;;4.78;;
49488;SDS011;35382;51.484;11.476;2023-08-06T02:32:13;9.43;;;4.75;;
49488;SDS011;35382;51.484;11.476;2023-08-06T02:34:39;8.52;;;4.72;;
49488;SDS011;35382;51.484;11.476;2023-08-06T02:37:04;8.98;;;5.70;;
49488;SDS011;35382;51.484;11.476;2023-08-06T02:39:29;12.18;;;5.50;;
49488;SDS011;35382;51.484;11.476;2023-08-06T02:41:57;34.15;;;7.10;;
49488;SDS011;35382;51.484;11.476;2023-08-06T02:44:22;9.00;;;5.93;;
49488;SDS011;35382;51.484;11.476;2023-08-06T02:46:48;41.92;;;7.18;;
49488;SDS011;35382;51.484;11.476;2023-08-06T02:49:14;15.00;;;6.13;;
49488;SDS011;35382;51.484;11.476;2023-08-06T02:51:39;13.35;;;5.63;;
49488;SDS011;35382;51.484;11.476;2023-08-06T02:54:04;14.48;;;5.47;;
49488;SDS011;35382;51.484;11.476;2023-08-06T02:56:32;7.45;;;5.20;;
49488;SDS011;35382;51.484;11.476;2023-08-06T03:02:03;9.40;;;5.40;;
49488;SDS011;35382;51.484;11.476;2023-08-06T03:04:40;10.70;;;5.93;;
49488;SDS011;35382;51.484;11.476;2023-08-06T03:07:06;11.48;;;6.63;;
49488;SDS011;35382;51.484;11.476;2023-08-06T03:09:40;7.65;;;6.10;;
49488;SDS011;35382;51.484;11.476;2023-08-06T03:12:05;8.30;;;6.00;;
49488;SDS011;35382;51.484;11.476;2023-08-06T03:14:31;7.00;;;5.30;;
49488;SDS011;35382;51.484;11.476;2023-08-06T03:16:57;8.80;;;5.43;;
49488;SDS011;35382;51.484;11.476;2023-08-06T03:19:23;10.70;;;6.13;;
49488;SDS011;35382;51.484;11.476;2023-08-06T03:21:48;7.47;;;5.63;;
49488;SDS011;35382;51.484;11.476;2023-08-06T03:24:15;7.18;;;5.85;;
49488;SDS011;35382;51.484;11.476;2023-08-06T03:26:41;8.65;;;6.28;;
49488;SDS011;35382;51.484;11.476;2023-08-06T03:29:08;9.13;;;6.07;;
49488;SDS011;35382;51.484;11.476;2023-08-06T03:31:34;8.18;;;5.82;;
49488;SDS011;35382;51.484;11.476;2023-08-06T03:33:59;7.65;;;6.07;;
49488;SDS011;35382;51.484;11.476;2023-08-06T03:36:26;7.63;;;6.35;;
49488;SDS011;35382;51.484;11.476;2023-08-06T03:38:52;7.88;;;5.78;;
49488;SDS011;35382;51.484;11.476;2023-08-06T03:41:17;8.38;;;6.03;;
49488;SDS011;35382;51.484;11.476;2023-08-06T03:43:44;8.05;;;5.85;;
49488;SDS011;35382;51.484;11.476;2023-08-06T03:46:16;10.73;;;6.10;;
49488;SDS011;35382;51.484;11.476;2023-08-06T03:48:41;9.18;;;5.70;;
49488;SDS011;35382;51.484;11.476;2023-08-06T03:51:07;11.80;;;6.28;;
49488;SDS011;35382;51.484;11.476;2023-08-06T03:53:32;11.48;;;6.50;;
49488;SDS011;35382;51.484;11.476;2023-08-06T03:55:58;14.30;;;6.93;;
49488;SDS011;35382;51.484;11.476;2023-08-06T03:58:24;12.52;;;7.50;;
49488;SDS011;35382;51.484;11.476;2023-08-06T04:00:58;24.17;;;8.10;;
49488;SDS011;35382;51.484;11.476;2023-08-06T04:03:25;24.15;;;8.60;;
49488;SDS011;35382;51.484;11.476;2023-08-06T04:05:50;30.63;;;9.20;;
49488;SDS011;35382;51.484;11.476;2023-08-06T04:08:16;16.52;;;8.48;;
49488;SDS011;35382;51.484;11.476;2023-08-06T04:10:41;17.20;;;9.07;;
49488;SDS011;35382;51.484;11.476;2023-08-06T04:13:06;15.48;;;9.32;;
49488;SDS011;35382;51.484;11.476;2023-08-06T04:15:33;15.85;;;9.38;;
49488;SDS011;35382;51.484;11.476;2023-08-06T04:17:59;13.75;;;8.57;;
49488;SDS011;35382;51.484;11.476;2023-08-06T04:20:24;17.92;;;8.55;;
49488;SDS011;35382;51.484;11.476;2023-08-06T04:22:49;20.00;;;8.48;;
49488;SDS011;35382;51.484;11.476;2023-08-06T04:25:17;32.30;;;9.65;;
49488;SDS011;35382;51.484;11.476;2023-08-06T04:27:43;11.60;;;7.47;;
49488;SDS011;35382;51.484;11.476;2023-08-06T04:30:09;9.00;;;6.65;;
49488;SDS011;35382;51.484;11.476;2023-08-06T04:32:36;9.45;;;6.57;;
49488;SDS011;35382;51.484;11.476;2023-08-06T04:35:01;9.63;;;6.60;;
49488;SDS011;35382;51.484;11.476;2023-08-06T04:37:27;9.13;;;6.00;;
49488;SDS011;35382;51.484;11.476;2023-08-06T04:39:53;9.70;;;6.40;;
49488;SDS011;35382;51.484;11.476;2023-08-06T04:42:18;10.15;;;5.75;;
49488;SDS011;35382;51.484;11.476;2023-08-06T04:44:44;8.43;;;6.10;;
49488;SDS011;35382;51.484;11.476;2023-08-06T04:47:09;7.35;;;5.75;;
49488;SDS011;35382;51.484;11.476;2023-08-06T04:49:34;8.60;;;5.40;;
49488;SDS011;35382;51.484;11.476;2023-08-06T04:52:00;7.60;;;5.38;;
49488;SDS011;35382;51.484;11.476;2023-08-06T04:54:25;8.55;;;5.97;;
49488;SDS011;35382;51.484;11.476;2023-08-06T04:56:51;9.50;;;6.25;;
49488;SDS011;35382;51.484;11.476;2023-08-06T04:59:16;8.88;;;6.20;;
49488;SDS011;35382;51.484;11.476;2023-08-06T05:01:41;8.57;;;6.18;;
49488;SDS011;35382;51.484;11.476;2023-08-06T05:04:07;8.27;;;6.22;;
49488;SDS011;35382;51.484;11.476;2023-08-06T05:06:32;8.77;;;6.47;;
49488;SDS011;35382;51.484;11.476;2023-08-06T05:08:57;11.05;;;7.07;;
49488;SDS011;35382;51.484;11.476;2023-08-06T05:11:23;10.57;;;6.68;;
49488;SDS011;35382;51.484;11.476;2023-08-06T05:13:49;11.03;;;6.50;;
49488;SDS011;35382;51.484;11.476;2023-08-06T05:16:15;9.32;;;6.63;;
49488;SDS011;35382;51.484;11.476;2023-08-06T05:18:40;8.45;;;6.22;;
49488;SDS011;35382;51.484;11.476;2023-08-06T05:21:06;9.43;;;6.85;;
49488;SDS011;35382;51.484;11.476;2023-08-06T05:23:31;10.30;;;7.22;;
49488;SDS011;35382;51.484;11.476;2023-08-06T05:25:56;12.00;;;8.02;;
49488;SDS011;35382;51.484;11.476;2023-08-06T05:28:22;12.35;;;7.43;;
49488;SDS011;35382;51.484;11.476;2023-08-06T05:30:47;10.40;;;7.22;;
49488;SDS011;35382;51.484;11.476;2023-08-06T05:33:13;9.98;;;7.35;;
49488;SDS011;35382;51.484;11.476;2023-08-06T05:35:38;9.20;;;7.05;;
49488;SDS011;35382;51.484;11.476;2023-08-06T05:40:32;10.80;;;7.40;;
49488;SDS011;35382;51.484;11.476;2023-08-06T05:42:58;9.27;;;6.97;;
49488;SDS011;35382;51.484;11.476;2023-08-06T05:45:24;13.55;;;7.32;;
49488;SDS011;35382;51.484;11.476;2023-08-06T05:47:49;9.85;;;7.13;;
49488;SDS011;35382;51.484;11.476;2023-08-06T05:50:15;12.77;;;7.50;;
49488;SDS011;35382;51.484;11.476;2023-08-06T05:52:40;9.35;;;6.80;;
49488;SDS011;35382;51.484;11.476;2023-08-06T05:55:06;10.10;;;7.28;;
49488;SDS011;35382;51.484;11.476;2023-08-06T05:57:31;9.98;;;7.30;;
49488;SDS011;35382;51.484;11.476;2023-08-06T05:59:57;10.40;;;7.00;;
49488;SDS011;35382;51.484;11.476;2023-08-06T06:02:23;9.32;;;6.88;;
49488;SDS011;35382;51.484;11.476;2023-08-06T06:04:48;9.23;;;6.28;;
49488;SDS011;35382;51.484;11.476;2023-08-06T06:07:14;8.35;;;6.10;;
49488;SDS011;35382;51.484;11.476;2023-08-06T06:09:39;8.57;;;5.50;;
49488;SDS011;35382;51.484;11.476;2023-08-06T06:12:05;7.72;;;5.38;;
49488;SDS011;35382;51.484;11.476;2023-08-06T06:14:31;7.28;;;4.72;;
49488;SDS011;35382;51.484;11.476;2023-08-06T06:16:57;6.95;;;4.75;;
49488;SDS011;35382;51.484;11.476;2023-08-06T06:19:23;7.68;;;4.50;;
49488;SDS011;35382;51.484;11.476;2023-08-06T06:21:48;7.38;;;5.38;;
49488;SDS011;35382;51.484;11.476;2023-08-06T06:24:14;6.00;;;4.72;;
49488;SDS011;35382;51.484;11.476;2023-08-06T06:26:39;6.90;;;5.10;;
49488;SDS011;35382;51.484;11.476;2023-08-06T06:29:04;8.07;;;4.88;;
49488;SDS011;35382;51.484;11.476;2023-08-06T06:31:30;6.43;;;4.85;;
49488;SDS011;35382;51.484;11.476;2023-08-06T06:33:55;7.35;;;4.60;;
49488;SDS011;35382;51.484;11.476;2023-08-06T06:36:20;7.20;;;4.18;;
49488;SDS011;35382;51.484;11.476;2023-08-06T06:38:46;7.22;;;4.93;;
49488;SDS011;35382;51.484;11.476;2023-08-06T06:41:11;7.47;;;4.85;;
49488;SDS011;35382;51.484;11.476;2023-08-06T06:43:37;6.72;;;4.50;;
49488;SDS011;35382;51.484;11.476;2023-08-06T06:46:02;8.60;;;4.50;;
49488;SDS011;35382;51.484;11.476;2023-08-06T06:48:28;6.85;;;4.47;;
49488;SDS011;35382;51.484;11.476;2023-08-06T06:50:55;6.47;;;4.97;;
49488;SDS011;35382;51.484;11.476;2023-08-06T06:53:21;7.13;;;4.70;;
49488;SDS011;35382;51.484;11.476;2023-08-06T06:55:49;5.63;;;4.18;;
49488;SDS011;35382;51.484;11.476;2023-08-06T06:58:15;7.60;;;4.80;;
49488;SDS011;35382;51.484;11.476;2023-08-06T07:00:40;6.22;;;4.45;;
49488;SDS011;35382;51.484;11.476;2023-08-06T07:03:06;7.20;;;4.53;;
49488;SDS011;35382;51.484;11.476;2023-08-06T07:05:31;7.00;;;4.47;;
49488;SDS011;35382;51.484;11.476;2023-08-06T07:07:57;6.03;;;4.20;;
49488;SDS011;35382;51.484;11.476;2023-08-06T07:10:23;4.65;;;3.63;;
49488;SDS011;35382;51.484;11.476;2023-08-06T07:12:48;7.70;;;4.18;;
49488;SDS011;35382;51.484;11.476;2023-08-06T07:15:14;5.55;;;4.07;;
49488;SDS011;35382;51.484;11.476;2023-08-06T07:17:39;5.55;;;4.18;;
49488;SDS011;35382;51.484;11.476;2023-08-06T07:20:05;5.35;;;3.90;;
49488;SDS011;35382;51.484;11.476;2023-08-06T07:22:31;5.88;;;3.83;;
49488;SDS011;35382;51.484;11.476;2023-08-06T07:24:56;5.63;;;4.03;;
49488;SDS011;35382;51.484;11.476;2023-08-06T07:27:21;5.25;;;3.78;;
49488;SDS011;35382;51.484;11.476;2023-08-06T07:29:47;6.85;;;4.65;;
49488;SDS011;35382;51.484;11.476;2023-08-06T07:32:13;5.35;;;3.72;;
49488;SDS011;35382;51.484;11.476;2023-08-06T07:34:41;6.38;;;3.85;;
49488;SDS011;35382;51.484;11.476;2023-08-06T07:37:06;6.40;;;3.67;;
49488;SDS011;35382;51.484;11.476;2023-08-06T07:39:32;6.50;;;3.90;;
49488;SDS011;35382;51.484;11.476;2023-08-06T07:41:57;5.00;;;3.65;;
49488;SDS011;35382;51.484;11.476;2023-08-06T07:44:22;6.07;;;3.63;;
49488;SDS011;35382;51.484;11.476;2023-08-06T07:46:48;7.65;;;4.03;;
49488;SDS011;35382;51.484;11.476;2023-08-06T07:49:13;5.30;;;3.53;;
49488;SDS011;35382;51.484;11.476;2023-08-06T07:51:39;5.15;;;3.60;;
49488;SDS011;35382;51.484;11.476;2023-08-06T07:54:05;5.80;;;3.70;;
49488;SDS011;35382;51.484;11.476;2023-08-06T07:56:31;5.97;;;3.88;;
49488;SDS011;35382;51.484;11.476;2023-08-06T07:58:56;6.57;;;3.85;;
49488;SDS011;35382;51.484;11.476;2023-08-06T08:01:21;7.45;;;4.15;;
49488;SDS011;35382;51.484;11.476;2023-08-06T08:03:47;6.22;;;3.30;;
49488;SDS011;35382;51.484;11.476;2023-08-06T08:06:12;6.30;;;3.55;;
49488;SDS011;35382;51.484;11.476;2023-08-06T08:08:38;6.07;;;3.50;;
49488;SDS011;35382;51.484;11.476;2023-08-06T08:11:04;5.50;;;3.80;;
49488;SDS011;35382;51.484;11.476;2023-08-06T08:13:30;4.43;;;3.13;;
49488;SDS011;35382;51.484;11.476;2023-08-06T08:15:58;5.90;;;3.40;;
49488;SDS011;35382;51.484;11.476;2023-08-06T08:18:24;4.60;;;3.20;;
49488;SDS011;35382;51.484;11.476;2023-08-06T08:20:50;5.35;;;3.13;;
49488;SDS011;35382;51.484;11.476;2023-08-06T08:23:15;4.85;;;2.88;;
49488;SDS011;35382;51.484;11.476;2023-08-06T08:25:41;4.27;;;3.10;;
49488;SDS011;35382;51.484;11.476;2023-08-06T08:28:06;5.25;;;3.22;;
49488;SDS011;35382;51.484;11.476;2023-08-06T08:30:32;5.50;;;3.85;;
49488;SDS011;35382;51.484;11.476;2023-08-06T08:32:58;5.18;;;2.90;;
49488;SDS011;35382;51.484;11.476;2023-08-06T08:35:23;4.05;;;2.92;;
49488;SDS011;35382;51.484;11.476;2023-08-06T08:37:49;5.25;;;3.15;;
49488;SDS011;35382;51.484;11.476;2023-08-06T08:40:14;5.00;;;3.05;;
49488;SDS011;35382;51.484;11.476;2023-08-06T08:42:40;4.10;;;3.03;;
49488;SDS011;35382;51.484;11.476;2023-08-06T08:45:29;5.10;;;2.72;;
49488;SDS011;35382;51.484;11.476;2023-08-06T08:47:53;4.70;;;3.00;;
49488;SDS011;35382;51.484;11.476;2023-08-06T08:50:19;5.93;;;3.10;;
49488;SDS011;35382;51.484;11.476;2023-08-06T08:52:44;4.05;;;2.83;;
49488;SDS011;35382;51.484;11.476;2023-08-06T08:55:11;4.70;;;2.77;;
49488;SDS011;35382;51.484;11.476;2023-08-06T08:57:39;4.97;;;3.10;;
49488;SDS011;35382;51.484;11.476;2023-08-06T09:00:04;4.05;;;2.83;;
49488;SDS011;35382;51.484;11.476;2023-08-06T09:02:30;3.90;;;2.70;;
49488;SDS011;35382;51.484;11.476;2023-08-06T09:04:58;4.53;;;2.80;;
49488;SDS011;35382;51.484;11.476;2023-08-06T09:07:25;4.57;;;2.45;;
49488;SDS011;35382;51.484;11.476;2023-08-06T09:09:51;5.18;;;2.60;;
49488;SDS011;35382;51.484;11.476;2023-08-06T09:12:19;3.40;;;2.30;;
49488;SDS011;35382;51.484;11.476;2023-08-06T09:14:49;4.60;;;2.53;;
49488;SDS011;35382;51.484;11.476;2023-08-06T09:17:14;4.47;;;2.60;;
49488;SDS011;35382;51.484;11.476;2023-08-06T09:19:42;5.70;;;3.05;;
49488;SDS011;35382;51.484;11.476;2023-08-06T09:22:08;3.95;;;2.65;;
49488;SDS011;35382;51.484;11.476;2023-08-06T09:24:38;4.40;;;2.47;;
49488;SDS011;35382;51.484;11.476;2023-08-06T09:27:04;4.30;;;3.05;;
49488;SDS011;35382;51.484;11.476;2023-08-06T09:29:30;4.50;;;2.57;;
49488;SDS011;35382;51.484;11.476;2023-08-06T09:31:59;4.97;;;2.72;;
49488;SDS011;35382;51.484;11.476;2023-08-06T09:34:24;6.43;;;2.70;;
49488;SDS011;35382;51.484;11.476;2023-08-06T09:36:53;4.50;;;2.77;;
49488;SDS011;35382;51.484;11.476;2023-08-06T09:39:32;5.15;;;2.72;;
49488;SDS011;35382;51.484;11.476;2023-08-06T09:42:22;3.90;;;2.50;;
49488;SDS011;35382;51.484;11.476;2023-08-06T09:44:48;4.10;;;2.20;;
49488;SDS011;35382;51.484;11.476;2023-08-06T09:47:13;3.60;;;2.40;;
49488;SDS011;35382;51.484;11.476;2023-08-06T09:49:41;4.05;;;2.38;;
49488;SDS011;35382;51.484;11.476;2023-08-06T09:52:09;5.40;;;2.35;;
49488;SDS011;35382;51.484;11.476;2023-08-06T09:54:36;3.92;;;2.65;;
49488;SDS011;35382;51.484;11.476;2023-08-06T09:57:02;6.28;;;2.72;;
49488;SDS011;35382;51.484;11.476;2023-08-06T09:59:28;3.67;;;2.67;;
49488;SDS011;35382;51.484;11.476;2023-08-06T10:01:57;3.58;;;2.20;;
49488;SDS011;35382;51.484;11.476;2023-08-06T10:04:23;3.40;;;2.40;;
49488;SDS011;35382;51.484;11.476;2023-08-06T10:06:49;4.47;;;2.43;;
49488;SDS011;35382;51.484;11.476;2023-08-06T10:09:14;2.80;;;1.93;;
49488;SDS011;35382;51.484;11.476;2023-08-06T10:11:40;3.33;;;2.33;;
49488;SDS011;35382;51.484;11.476;2023-08-06T10:14:14;3.72;;;2.35;;
49488;SDS011;35382;51.484;11.476;2023-08-06T10:16:43;4.30;;;2.50;;
49488;SDS011;35382;51.484;11.476;2023-08-06T10:19:10;4.70;;;2.37;;
49488;SDS011;35382;51.484;11.476;2023-08-06T10:21:40;6.10;;;2.13;;
49488;SDS011;35382;51.484;11.476;2023-08-06T10:24:08;4.15;;;2.30;;
49488;SDS011;35382;51.484;11.476;2023-08-06T10:26:34;5.30;;;2.13;;
49488;SDS011;35382;51.484;11.476;2023-08-06T10:32:00;2.90;;;1.95;;
49488;SDS011;35382;51.484;11.476;2023-08-06T10:34:46;3.87;;;2.13;;
49488;SDS011;35382;51.484;11.476;2023-08-06T10:37:24;4.15;;;1.90;;
49488;SDS011;35382;51.484;11.476;2023-08-06T10:39:59;3.40;;;2.10;;
49488;SDS011;35382;51.484;11.476;2023-08-06T10:42:28;3.40;;;2.03;;
49488;SDS011;35382;51.484;11.476;2023-08-06T10:45:13;3.67;;;1.90;;
49488;SDS011;35382;51.484;11.476;2023-08-06T10:47:40;2.55;;;1.88;;
49488;SDS011;35382;51.484;11.476;2023-08-06T10:50:10;4.30;;;2.27;;
49488;SDS011;35382;51.484;11.476;2023-08-06T10:52:41;2.58;;;1.73;;
49488;SDS011;35382;51.484;11.476;2023-08-06T10:55:06;2.67;;;1.50;;
49488;SDS011;35382;51.484;11.476;2023-08-06T10:57:32;3.17;;;1.90;;
49488;SDS011;35382;51.484;11.476;2023-08-06T10:59:57;5.13;;;2.00;;
49488;SDS011;35382;51.484;11.476;2023-08-06T11:02:23;4.17;;;1.90;;
49488;SDS011;35382;51.484;11.476;2023-08-06T11:04:48;4.67;;;2.30;;
49488;SDS011;35382;51.484;11.476;2023-08-06T11:07:14;3.10;;;1.90;;
49488;SDS011;35382;51.484;11.476;2023-08-06T11:09:39;3.63;;;1.63;;
49488;SDS011;35382;51.484;11.476;2023-08-06T11:12:11;2.33;;;1.40;;
49488;SDS011;35382;51.484;11.476;2023-08-06T11:14:36;2.95;;;1.42;;
49488;SDS011;35382;51.484;11.476;2023-08-06T11:17:02;2.30;;;1.50;;
49488;SDS011;35382;51.484;11.476;2023-08-06T11:19:28;2.33;;;1.20;;
49488;SDS011;35382;51.484;11.476;2023-08-06T11:21:54;2.97;;;1.40;;
49488;SDS011;35382;51.484;11.476;2023-08-06T11:24:20;1.90;;;1.23;;
49488;SDS011;35382;51.484;11.476;2023-08-06T11:26:48;2.60;;;1.40;;
49488;SDS011;35382;51.484;11.476;2023-08-06T11:29:15;2.20;;;1.40;;
49488;SDS011;35382;51.484;11.476;2023-08-06T11:31:40;2.88;;;1.60;;
49488;SDS011;35382;51.484;11.476;2023-08-06T11:34:06;2.97;;;1.80;;
49488;SDS011;35382;51.484;11.476;2023-08-06T11:36:32;2.90;;;1.60;;
49488;SDS011;35382;51.484;11.476;2023-08-06T11:39:02;3.35;;;1.63;;
49488;SDS011;35382;51.484;11.476;2023-08-06T11:41:28;3.33;;;1.48;;
49488;SDS011;35382;51.484;11.476;2023-08-06T11:43:54;2.17;;;1.40;;
49488;SDS011;35382;51.484;11.476;2023-08-06T11:46:19;2.40;;;1.43;;
49488;SDS011;35382;51.484;11.476;2023-08-06T11:48:54;2.13;;;1.33;;
49488;SDS011;35382;51.484;11.476;2023-08-06T11:51:24;1.85;;;1.30;;
49488;SDS011;35382;51.484;11.476;2023-08-06T11:53:56;2.90;;;1.50;;
49488;SDS011;35382;51.484;11.476;2023-08-06T11:56:22;2.78;;;1.50;;
49488;SDS011;35382;51.484;11.476;2023-08-06T11:58:49;2.47;;;1.65;;
49488;SDS011;35382;51.484;11.476;2023-08-06T12:01:15;1.50;;;1.20;;
49488;SDS011;35382;51.484;11.476;2023-08-06T12:03:40;2.93;;;1.30;;
49488;SDS011;35382;51.484;11.476;2023-08-06T12:06:06;2.80;;;1.60;;
49488;SDS011;35382;51.484;11.476;2023-08-06T12:08:31;2.50;;;1.50;;
49488;SDS011;35382;51.484;11.476;2023-08-06T12:10:57;3.83;;;1.80;;
49488;SDS011;35382;51.484;11.476;2023-08-06T12:13:22;2.67;;;1.70;;
49488;SDS011;35382;51.484;11.476;2023-08-06T12:15:48;2.47;;;1.50;;
49488;SDS011;35382;51.484;11.476;2023-08-06T12:18:13;2.67;;;1.63;;
49488;SDS011;35382;51.484;11.476;2023-08-06T12:20:38;3.40;;;1.63;;
49488;SDS011;35382;51.484;11.476;2023-08-06T12:23:06;2.83;;;1.57;;
49488;SDS011;35382;51.484;11.476;2023-08-06T12:25:32;2.28;;;1.50;;
49488;SDS011;35382;51.484;11.476;2023-08-06T12:27:59;2.92;;;1.60;;
49488;SDS011;35382;51.484;11.476;2023-08-06T12:30:25;2.27;;;1.53;;
49488;SDS011;35382;51.484;11.476;2023-08-06T12:32:50;3.00;;;1.50;;
49488;SDS011;35382;51.484;11.476;2023-08-06T12:35:16;2.60;;;1.60;;
49488;SDS011;35382;51.484;11.476;2023-08-06T12:37:41;3.27;;;1.70;;
49488;SDS011;35382;51.484;11.476;2023-08-06T12:40:07;2.77;;;1.67;;
49488;SDS011;35382;51.484;11.476;2023-08-06T12:42:32;2.30;;;1.60;;
49488;SDS011;35382;51.484;11.476;2023-08-06T12:44:58;2.43;;;1.47;;
49488;SDS011;35382;51.484;11.476;2023-08-06T12:47:23;3.37;;;1.50;;
49488;SDS011;35382;51.484;11.476;2023-08-06T12:49:49;2.77;;;1.50;;
49488;SDS011;35382;51.484;11.476;2023-08-06T12:52:15;2.10;;;1.40;;
49488;SDS011;35382;51.484;11.476;2023-08-06T12:54:40;3.03;;;1.60;;
49488;SDS011;35382;51.484;11.476;2023-08-06T12:57:06;3.37;;;1.50;;
49488;SDS011;35382;51.484;11.476;2023-08-06T12:59:31;2.70;;;1.50;;
49488;SDS011;35382;51.484;11.476;2023-08-06T13:01:57;2.43;;;1.50;;
49488;SDS011;35382;51.484;11.476;2023-08-06T13:04:22;3.17;;;1.60;;
49488;SDS011;35382;51.484;11.476;2023-08-06T13:06:51;3.25;;;1.50;;
49488;SDS011;35382;51.484;11.476;2023-08-06T13:09:16;2.80;;;1.57;;
49488;SDS011;35382;51.484;11.476;2023-08-06T13:11:42;2.67;;;1.60;;
49488;SDS011;35382;51.484;11.476;2023-08-06T13:14:08;1.85;;;1.30;;
49488;SDS011;35382;51.484;11.476;2023-08-06T13:16:35;2.17;;;1.20;;
49488;SDS011;35382;51.484;11.476;2023-08-06T13:19:02;1.45;;;1.20;;
49488;SDS011;35382;51.484;11.476;2023-08-06T13:23:57;4.15;;;1.50;;
49488;SDS011;35382;51.484;11.476;2023-08-06T13:26:23;3.87;;;1.47;;
49488;SDS011;35382;51.484;11.476;2023-08-06T13:28:48;4.03;;;1.37;;
49488;SDS011;35382;51.484;11.476;2023-08-06T13:31:14;1.60;;;1.17;;
49488;SDS011;35382;51.484;11.476;2023-08-06T13:33:39;2.10;;;1.30;;
49488;SDS011;35382;51.484;11.476;2023-08-06T13:36:04;1.70;;;1.23;;
49488;SDS011;35382;51.484;11.476;2023-08-06T13:38:30;3.90;;;1.37;;
49488;SDS011;35382;51.484;11.476;2023-08-06T13:40:55;2.43;;;1.20;;
49488;SDS011;35382;51.484;11.476;2023-08-06T13:43:24;2.75;;;1.17;;
49488;SDS011;35382;51.484;11.476;2023-08-06T13:45:49;1.97;;;1.30;;
49488;SDS011;35382;51.484;11.476;2023-08-06T13:48:15;2.60;;;1.30;;
49488;SDS011;35382;51.484;11.476;2023-08-06T13:50:40;2.97;;;1.30;;
49488;SDS011;35382;51.484;11.476;2023-08-06T13:53:05;1.93;;;1.17;;
49488;SDS011;35382;51.484;11.476;2023-08-06T13:55:31;1.50;;;1.10;;
49488;SDS011;35382;51.484;11.476;2023-08-06T13:57:56;2.63;;;1.30;;
49488;SDS011;35382;51.484;11.476;2023-08-06T14:00:22;2.77;;;1.27;;
49488;SDS011;35382;51.484;11.476;2023-08-06T14:02:47;2.30;;;1.20;;
49488;SDS011;35382;51.484;11.476;2023-08-06T14:05:13;1.97;;;1.30;;
49488;SDS011;35382;51.484;11.476;2023-08-06T14:07:38;2.67;;;1.40;;
49488;SDS011;35382;51.484;11.476;2023-08-06T14:10:04;2.53;;;1.30;;
49488;SDS011;35382;51.484;11.476;2023-08-06T14:12:30;2.25;;;1.30;;
49488;SDS011;35382;51.484;11.476;2023-08-06T14:14:56;3.60;;;1.45;;
49488;SDS011;35382;51.484;11.476;2023-08-06T14:17:21;2.70;;;1.30;;
49488;SDS011;35382;51.484;11.476;2023-08-06T14:19:47;1.83;;;1.10;;
49488;SDS011;35382;51.484;11.476;2023-08-06T14:22:12;4.13;;;1.47;;
49488;SDS011;35382;51.484;11.476;2023-08-06T14:24:37;2.67;;;1.30;;
49488;SDS011;35382;51.484;11.476;2023-08-06T14:27:03;2.17;;;1.40;;
49488;SDS011;35382;51.484;11.476;2023-08-06T14:29:28;2.80;;;1.30;;
49488;SDS011;35382;51.484;11.476;2023-08-06T14:31:54;2.43;;;1.20;;
49488;SDS011;35382;51.484;11.476;2023-08-06T14:34:19;3.03;;;1.13;;
49488;SDS011;35382;51.484;11.476;2023-08-06T14:36:45;2.57;;;1.00;;
49488;SDS011;35382;51.484;11.476;2023-08-06T14:39:10;2.13;;;1.23;;
49488;SDS011;35382;51.484;11.476;2023-08-06T14:41:35;2.73;;;1.47;;
49488;SDS011;35382;51.484;11.476;2023-08-06T14:44:01;2.33;;;1.10;;
49488;SDS011;35382;51.484;11.476;2023-08-06T14:46:26;2.03;;;1.27;;